Aérodrome :
LOGIN :

S'inscrire | Disclaimer

   EN    FR    IT 

 










Légende :    VFR   VFR Marginal   IFR   IFR Intensif   IFR Très Intensif
Visi : 
Plafond : 
>= 8 km
>= 3000ft
5 à 8 km
1000 à 3000 ft
1500m à 5 km
500 à 1000 ft
800 à 1500m
200 à 500 ft
< 800m
< 200 ft
Symboles :   Orages  Brouillard  Fortes neiges  Fortes précipitations  Vent > 20 kt
SIGMETs :   Divers  Orages  Givrage  Turbulence  Onde Orograph.  Cendres Volcan.







- Altitude de l'aérodrome : 202 ft
- Code IATA : LGW
- Voir les cartes d'approche


EGKK - London Gatwick

DERNIER METAR :
  • 231750Z 05015KT 9999 FEW026 09/05 Q1016

METARs EXPIRÉS :
  • 231720Z 06016G26KT 9999 FEW026 09/05 Q1016
  • 231650Z 06018KT 9999 FEW023 10/05 Q1015
  • 231620Z 07022KT 9999 SCT024 10/05 Q1015
  • 231550Z 06022G32KT 9999 FEW030 10/04 Q1015
  • 231520Z 06018KT 9999 FEW029 10/04 Q1014

TAF TAF EGKK
Valide du 23 à 18h jusqu'au 25 à 00h UTC


231653Z 2318/2424 05018G28KT 9999 FEW028
BECMG 2400/2403 06015KT
PROB30
TEMPO 2400/2404 BKN012
TEMPO 2404/2412 BKN012
PROB30 2404/2409 7000
PROB30
TEMPO 2415/2424 05018G28KT
Pas de NOTAMs connus pour ce terrain.
2 SIGMETs publiés pour la FIR London (EGTT) :
 
Turbulence forte
EGTT SIGMET 05 VALID 231615/231900 EGRR
EGTT LONDON FIR SEV TURB FCST WI N5107 E00200 - N5100 E00128 - N5040 E00128 - N5000 W00015 - N4944 W00323 - N4936 W00511 - N5114 E00200 - N5107 E00200 SFC/FL060 MOV W 05KT INTSF=
Turbulence forte
EGTT SIGMET 04 VALID 231616/231900 EGRR
EGTT LONDON FIR SEV TURB FCST WI N5220 W00530 - N5351 W00530 - N5500 W00254 - N5500 W00100 - N5500 E00239 - N5124 W00644 - N5139 W00647 - N5220 W00530 FL200/330 MOV SE 05KT NC=



MET'MAP, la Météo Aéronautique d'un coup d'oeil ! - Copyright ORBIFLY Décembre 2007 - Disclaimer

ORBIFLY MET'MAP TEAM :

Programmation & Développement : Alexandra Zaïnal
Conception & Développement : Baudouin d'Aumeries
Co-Programmation & Développement : Marc-Olivier Méhu
Soutien technique & logistique : Manuel Goepfert

Contact : metmap@orbifly.com




SOURCES & CREDITS :

   NOAA